createdAt,value
2024-01-08T00:07:07.569Z,-2.9
2024-01-08T00:17:09.291Z,-3
2024-01-08T00:27:11.194Z,-3.1
2024-01-08T00:37:12.920Z,-3.2
2024-01-08T00:47:14.791Z,-3.3
2024-01-08T00:57:16.244Z,-3.4
2024-01-08T01:07:17.472Z,-3.5
2024-01-08T01:17:18.998Z,-3.5
2024-01-08T01:27:20.602Z,-3.4
2024-01-08T01:37:21.826Z,-3.4
2024-01-08T01:47:23.279Z,-3.3
2024-01-08T01:57:24.564Z,-3.3
2024-01-08T02:07:26.621Z,-3.2
2024-01-08T02:17:28.292Z,-3.2
2024-01-08T02:27:29.511Z,-3.2
2024-01-08T02:37:31.246Z,-3.2
2024-01-08T02:47:33.282Z,-3.2
2024-01-08T02:57:35.119Z,-3.2
2024-01-08T03:07:36.684Z,-3.1
2024-01-08T03:27:39.593Z,-3.2
2024-01-08T03:37:41.664Z,-3.2
2024-01-08T03:47:43.301Z,-3.1
2024-01-08T04:07:47.149Z,-3.1
2024-01-08T04:17:48.722Z,-3.1
2024-01-08T04:27:49.966Z,-3.1
2024-01-08T04:37:51.327Z,-3
2024-01-08T04:57:55.081Z,-3
2024-01-08T05:17:58.174Z,-3
2024-01-08T05:38:01.064Z,-2.9
2024-01-08T05:48:03.228Z,-2.8
2024-01-08T05:58:04.808Z,-2.7
2024-01-08T06:18:08.175Z,-2.7
2024-01-08T06:28:09.892Z,-2.7
2024-01-08T06:38:11.235Z,-2.7
2024-01-08T06:48:12.587Z,-2.7
2024-01-08T06:58:14.462Z,-2.8
2024-01-08T07:08:16.176Z,-2.8
2024-01-08T07:18:17.290Z,-2.8
2024-01-08T07:28:18.397Z,-2.7
2024-01-08T07:38:20.466Z,-2.7
2024-01-08T07:48:21.653Z,-2.8
2024-01-08T07:58:24.960Z,-2.8
2024-01-08T08:08:24.254Z,-2.8
2024-01-08T08:18:26.321Z,-2.7
2024-01-08T08:28:27.994Z,-2.5
2024-01-08T08:38:29.880Z,-2.5
2024-01-08T08:48:31.021Z,-2.4
2024-01-08T08:58:32.487Z,-1.9
2024-01-08T09:08:33.953Z,-1.4
2024-01-08T09:18:35.964Z,-1.6
2024-01-08T09:28:37.173Z,-1.4
2024-01-08T09:38:38.826Z,-1.1
2024-01-08T09:48:40.396Z,-1
2024-01-08T09:58:42.032Z,-1
2024-01-08T10:08:44.149Z,-0.9
2024-01-08T10:18:45.502Z,-1.4
2024-01-08T10:28:47.049Z,-1.4
2024-01-08T10:38:48.980Z,-1.4
2024-01-08T10:58:52.096Z,-1.3
2024-01-08T10:59:35.874Z,-1.3
2024-01-08T11:09:00.434Z,-1.3
2024-01-08T11:19:01.914Z,-1.7
2024-01-08T11:29:03.023Z,-1.6
2024-01-08T11:39:05.071Z,-1.7
2024-01-08T11:49:06.644Z,-1.3
2024-01-08T11:59:08.333Z,-1.3
2024-01-08T12:09:10.425Z,-1.7
2024-01-08T12:19:12.059Z,-1.3
2024-01-08T12:29:13.995Z,-1.3
2024-01-08T12:39:15.906Z,-1.1
2024-01-08T12:49:17.983Z,-1.2
2024-01-08T12:59:19.770Z,-1.3
2024-01-08T13:09:21.761Z,-1.4
2024-01-08T13:19:23.160Z,-1.4
2024-01-08T13:29:24.527Z,-1.4
2024-01-08T13:39:25.984Z,-1.5
2024-01-08T13:49:28.008Z,-1.5
2024-01-08T13:59:30.015Z,-1.7
2024-01-08T14:09:31.653Z,-1.6
2024-01-08T14:19:32.965Z,-1.5
2024-01-08T14:29:34.891Z,-1.8
2024-01-08T14:39:36.022Z,-2.1
2024-01-08T14:49:38.094Z,-2.4
2024-01-08T14:59:40.067Z,-2.6
2024-01-08T15:09:41.292Z,-2.8
2024-01-08T15:19:42.882Z,-3
2024-01-08T15:29:44.864Z,-3.1
2024-01-08T15:39:46.794Z,-3.2
2024-01-08T15:49:48.728Z,-3.3
2024-01-08T15:59:49.874Z,-3.4
2024-01-08T16:09:51.726Z,-3.4
2024-01-08T16:19:53.315Z,-3.5
2024-01-08T16:29:55.380Z,-3.5
2024-01-08T16:39:56.623Z,-3.6
2024-01-08T16:49:57.950Z,-3.7
2024-01-08T16:59:59.229Z,-3.7
2024-01-08T17:10:01.169Z,-3.8
2024-01-08T17:20:03.273Z,-3.9
2024-01-08T17:30:04.746Z,-3.9
2024-01-08T17:40:06.379Z,-4
2024-01-08T17:50:07.709Z,-4
2024-01-08T18:00:09.097Z,-4.1
2024-01-08T18:10:10.487Z,-4.2
2024-01-08T18:20:11.983Z,-4.2
2024-01-08T18:30:13.292Z,-4.2
2024-01-08T19:00:17.135Z,-4.3
2024-01-08T19:10:18.829Z,-4.4
2024-01-08T19:30:22.174Z,-4.5
2024-01-08T19:40:23.820Z,-4.5
2024-01-08T19:50:25.343Z,-4.5
2024-01-08T20:00:26.737Z,-4.6
2024-01-08T20:10:27.984Z,-4.6
2024-01-08T20:30:31.142Z,-4.7
2024-01-08T20:40:32.351Z,-4.7
2024-01-08T20:50:34.375Z,-4.8
2024-01-08T21:00:36.083Z,-4.9
2024-01-08T21:10:37.493Z,-4.9
2024-01-08T21:20:39.340Z,-5
2024-01-08T21:30:40.632Z,-5
2024-01-08T21:40:41.945Z,-5
2024-01-08T21:50:43.740Z,-5
2024-01-08T22:00:45.713Z,-5.1
2024-01-08T22:10:47.759Z,-5.1
2024-01-08T22:20:49.696Z,-5.2
2024-01-08T22:40:53.234Z,-5.3
2024-01-08T22:50:54.928Z,-5.4
2024-01-08T23:31:01.956Z,-5.5
2024-01-08T23:41:04.009Z,-5.5
2024-01-08T23:51:05.924Z,-5.5
